sensor_id;sensor_type;location;lat;lon;timestamp;temperature;humidity
15700;DHT22;7950;42.744;23.174;2023-11-19T00:00:41;3.60;99.90
15700;DHT22;7950;42.744;23.174;2023-11-19T00:03:19;3.70;99.90
15700;DHT22;7950;42.744;23.174;2023-11-19T00:05:48;3.60;99.90
15700;DHT22;7950;42.744;23.174;2023-11-19T00:08:19;3.60;99.90
15700;DHT22;7950;42.744;23.174;2023-11-19T00:10:48;3.60;99.90
15700;DHT22;7950;42.744;23.174;2023-11-19T00:13:18;3.60;99.90
15700;DHT22;7950;42.744;23.174;2023-11-19T00:15:47;3.60;99.90
15700;DHT22;7950;42.744;23.174;2023-11-19T00:18:16;3.70;99.90
15700;DHT22;7950;42.744;23.174;2023-11-19T00:20:45;3.70;99.90
15700;DHT22;7950;42.744;23.174;2023-11-19T00:23:14;3.60;99.90
15700;DHT22;7950;42.744;23.174;2023-11-19T00:25:44;3.60;99.90
15700;DHT22;7950;42.744;23.174;2023-11-19T00:28:15;3.60;99.90
15700;DHT22;7950;42.744;23.174;2023-11-19T00:30:44;3.70;99.90
15700;DHT22;7950;42.744;23.174;2023-11-19T00:33:13;3.60;99.90
15700;DHT22;7950;42.744;23.174;2023-11-19T00:35:42;3.60;99.90
15700;DHT22;7950;42.744;23.174;2023-11-19T00:38:10;3.70;99.90
15700;DHT22;7950;42.744;23.174;2023-11-19T00:40:39;3.70;99.90
15700;DHT22;7950;42.744;23.174;2023-11-19T00:43:10;3.70;99.90
15700;DHT22;7950;42.744;23.174;2023-11-19T00:45:39;3.70;99.90
15700;DHT22;7950;42.744;23.174;2023-11-19T00:48:08;3.80;99.90
15700;DHT22;7950;42.744;23.174;2023-11-19T00:50:37;3.80;99.90
15700;DHT22;7950;42.744;23.174;2023-11-19T00:53:09;3.70;99.90
15700;DHT22;7950;42.744;23.174;2023-11-19T00:55:38;3.70;99.90
15700;DHT22;7950;42.744;23.174;2023-11-19T00:58:11;3.70;99.90
15700;DHT22;7950;42.744;23.174;2023-11-19T01:00:41;3.70;99.90
15700;DHT22;7950;42.744;23.174;2023-11-19T01:03:10;3.70;99.90
15700;DHT22;7950;42.744;23.174;2023-11-19T01:05:40;3.70;99.90
15700;DHT22;7950;42.744;23.174;2023-11-19T01:08:10;3.70;99.90
15700;DHT22;7950;42.744;23.174;2023-11-19T01:10:39;3.70;99.90
15700;DHT22;7950;42.744;23.174;2023-11-19T01:13:08;3.80;99.90
15700;DHT22;7950;42.744;23.174;2023-11-19T01:15:39;3.70;99.90
15700;DHT22;7950;42.744;23.174;2023-11-19T01:18:08;3.80;99.90
15700;DHT22;7950;42.744;23.174;2023-11-19T01:20:38;3.70;99.90
15700;DHT22;7950;42.744;23.174;2023-11-19T01:23:07;3.70;99.90
15700;DHT22;7950;42.744;23.174;2023-11-19T01:25:36;3.70;99.90
15700;DHT22;7950;42.744;23.174;2023-11-19T01:28:05;3.60;99.90
15700;DHT22;7950;42.744;23.174;2023-11-19T01:30:34;3.60;99.90
15700;DHT22;7950;42.744;23.174;2023-11-19T01:33:05;3.60;99.90
15700;DHT22;7950;42.744;23.174;2023-11-19T01:35:34;3.60;99.90
15700;DHT22;7950;42.744;23.174;2023-11-19T01:38:03;3.50;99.90
15700;DHT22;7950;42.744;23.174;2023-11-19T01:40:32;3.40;99.90
15700;DHT22;7950;42.744;23.174;2023-11-19T01:43:01;3.50;99.90
15700;DHT22;7950;42.744;23.174;2023-11-19T01:45:31;3.40;99.90
15700;DHT22;7950;42.744;23.174;2023-11-19T01:48:02;3.50;99.90
15700;DHT22;7950;42.744;23.174;2023-11-19T01:50:34;3.40;99.90
15700;DHT22;7950;42.744;23.174;2023-11-19T01:53:04;3.40;99.90
15700;DHT22;7950;42.744;23.174;2023-11-19T01:55:33;3.40;99.90
15700;DHT22;7950;42.744;23.174;2023-11-19T01:58:04;3.40;99.90
15700;DHT22;7950;42.744;23.174;2023-11-19T02:00:33;3.40;99.90
15700;DHT22;7950;42.744;23.174;2023-11-19T02:03:03;3.30;99.90
15700;DHT22;7950;42.744;23.174;2023-11-19T02:05:35;3.40;99.90
15700;DHT22;7950;42.744;23.174;2023-11-19T02:08:05;3.40;99.90
15700;DHT22;7950;42.744;23.174;2023-11-19T02:10:36;3.40;99.90
15700;DHT22;7950;42.744;23.174;2023-11-19T02:13:05;3.40;99.90
15700;DHT22;7950;42.744;23.174;2023-11-19T02:15:35;3.40;99.90
15700;DHT22;7950;42.744;23.174;2023-11-19T02:18:27;3.30;99.90
15700;DHT22;7950;42.744;23.174;2023-11-19T02:20:57;3.40;99.90
15700;DHT22;7950;42.744;23.174;2023-11-19T02:23:27;3.30;99.90
15700;DHT22;7950;42.744;23.174;2023-11-19T02:26:09;3.30;99.90
15700;DHT22;7950;42.744;23.174;2023-11-19T02:28:44;3.30;99.90
15700;DHT22;7950;42.744;23.174;2023-11-19T02:31:13;3.20;99.90
15700;DHT22;7950;42.744;23.174;2023-11-19T02:33:42;3.20;99.90
15700;DHT22;7950;42.744;23.174;2023-11-19T02:36:11;3.20;99.90
15700;DHT22;7950;42.744;23.174;2023-11-19T02:38:40;3.20;99.90
15700;DHT22;7950;42.744;23.174;2023-11-19T02:41:09;3.20;99.90
15700;DHT22;7950;42.744;23.174;2023-11-19T02:43:38;3.20;99.90
15700;DHT22;7950;42.744;23.174;2023-11-19T02:46:09;3.20;99.90
15700;DHT22;7950;42.744;23.174;2023-11-19T02:48:41;3.10;99.90
15700;DHT22;7950;42.744;23.174;2023-11-19T02:51:10;3.20;99.90
15700;DHT22;7950;42.744;23.174;2023-11-19T02:53:39;3.20;99.90
15700;DHT22;7950;42.744;23.174;2023-11-19T02:56:11;3.30;99.90
15700;DHT22;7950;42.744;23.174;2023-11-19T02:58:47;3.30;99.90
15700;DHT22;7950;42.744;23.174;2023-11-19T03:01:23;3.30;99.90
15700;DHT22;7950;42.744;23.174;2023-11-19T03:03:58;3.30;99.90
15700;DHT22;7950;42.744;23.174;2023-11-19T03:06:29;3.30;99.90
15700;DHT22;7950;42.744;23.174;2023-11-19T03:08:59;3.30;99.90
15700;DHT22;7950;42.744;23.174;2023-11-19T03:11:33;3.30;99.90
15700;DHT22;7950;42.744;23.174;2023-11-19T03:14:02;3.30;99.90
15700;DHT22;7950;42.744;23.174;2023-11-19T03:16:33;3.30;99.90
15700;DHT22;7950;42.744;23.174;2023-11-19T03:19:02;3.30;99.90
15700;DHT22;7950;42.744;23.174;2023-11-19T03:21:31;3.40;99.90
15700;DHT22;7950;42.744;23.174;2023-11-19T03:24:01;3.40;99.90
15700;DHT22;7950;42.744;23.174;2023-11-19T03:26:30;3.40;99.90
15700;DHT22;7950;42.744;23.174;2023-11-19T03:29:00;3.30;99.90
15700;DHT22;7950;42.744;23.174;2023-11-19T03:31:29;3.30;99.90
15700;DHT22;7950;42.744;23.174;2023-11-19T03:34:00;3.40;99.90
15700;DHT22;7950;42.744;23.174;2023-11-19T03:36:32;3.40;99.90
15700;DHT22;7950;42.744;23.174;2023-11-19T03:39:01;3.40;99.90
15700;DHT22;7950;42.744;23.174;2023-11-19T03:41:31;3.40;99.90
15700;DHT22;7950;42.744;23.174;2023-11-19T03:44:03;3.40;99.90
15700;DHT22;7950;42.744;23.174;2023-11-19T03:46:32;3.40;99.90
15700;DHT22;7950;42.744;23.174;2023-11-19T03:49:04;3.40;99.90
15700;DHT22;7950;42.744;23.174;2023-11-19T03:51:34;3.40;99.90
15700;DHT22;7950;42.744;23.174;2023-11-19T03:54:03;3.50;99.90
15700;DHT22;7950;42.744;23.174;2023-11-19T03:56:33;3.40;99.90
15700;DHT22;7950;42.744;23.174;2023-11-19T03:59:04;3.40;99.90
15700;DHT22;7950;42.744;23.174;2023-11-19T04:01:36;3.40;99.90
15700;DHT22;7950;42.744;23.174;2023-11-19T04:04:07;3.50;99.90
15700;DHT22;7950;42.744;23.174;2023-11-19T04:06:36;3.50;99.90
15700;DHT22;7950;42.744;23.174;2023-11-19T04:09:05;3.50;99.90
15700;DHT22;7950;42.744;23.174;2023-11-19T04:11:36;3.40;99.90
15700;DHT22;7950;42.744;23.174;2023-11-19T04:14:05;3.40;99.90
15700;DHT22;7950;42.744;23.174;2023-11-19T04:16:33;3.40;99.90
15700;DHT22;7950;42.744;23.174;2023-11-19T04:19:02;3.40;99.90
15700;DHT22;7950;42.744;23.174;2023-11-19T04:21:33;3.30;99.90
15700;DHT22;7950;42.744;23.174;2023-11-19T04:24:02;3.30;99.90
15700;DHT22;7950;42.744;23.174;2023-11-19T04:26:31;3.30;99.90
15700;DHT22;7950;42.744;23.174;2023-11-19T04:29:01;3.20;99.90
15700;DHT22;7950;42.744;23.174;2023-11-19T04:31:30;3.20;99.90
15700;DHT22;7950;42.744;23.174;2023-11-19T04:33:59;3.30;99.90
15700;DHT22;7950;42.744;23.174;2023-11-19T04:36:28;3.20;99.90
15700;DHT22;7950;42.744;23.174;2023-11-19T04:38:59;3.10;99.90
15700;DHT22;7950;42.744;23.174;2023-11-19T04:41:28;3.10;99.90
15700;DHT22;7950;42.744;23.174;2023-11-19T04:43:57;3.10;99.90
15700;DHT22;7950;42.744;23.174;2023-11-19T04:46:26;3.20;99.90
15700;DHT22;7950;42.744;23.174;2023-11-19T04:48:55;3.20;99.90
15700;DHT22;7950;42.744;23.174;2023-11-19T04:51:24;3.20;99.90
15700;DHT22;7950;42.744;23.174;2023-11-19T04:53:53;3.20;99.90
15700;DHT22;7950;42.744;23.174;2023-11-19T04:56:23;3.10;99.90
15700;DHT22;7950;42.744;23.174;2023-11-19T04:58:53;3.10;99.90
15700;DHT22;7950;42.744;23.174;2023-11-19T05:01:22;3.10;99.90
15700;DHT22;7950;42.744;23.174;2023-11-19T05:03:51;3.20;99.90
15700;DHT22;7950;42.744;23.174;2023-11-19T05:06:20;3.10;99.90
15700;DHT22;7950;42.744;23.174;2023-11-19T05:08:49;3.10;99.90
15700;DHT22;7950;42.744;23.174;2023-11-19T05:11:18;3.10;99.90
15700;DHT22;7950;42.744;23.174;2023-11-19T05:13:48;3.10;99.90
15700;DHT22;7950;42.744;23.174;2023-11-19T05:16:18;3.10;99.90
15700;DHT22;7950;42.744;23.174;2023-11-19T05:18:49;3.20;99.90
15700;DHT22;7950;42.744;23.174;2023-11-19T05:21:18;3.20;99.90
15700;DHT22;7950;42.744;23.174;2023-11-19T05:23:47;3.20;99.90
15700;DHT22;7950;42.744;23.174;2023-11-19T05:26:20;3.30;99.90
15700;DHT22;7950;42.744;23.174;2023-11-19T05:28:51;3.20;99.90
15700;DHT22;7950;42.744;23.174;2023-11-19T05:31:20;3.10;99.90
15700;DHT22;7950;42.744;23.174;2023-11-19T05:33:49;3.20;99.90
15700;DHT22;7950;42.744;23.174;2023-11-19T05:36:18;3.10;99.90
15700;DHT22;7950;42.744;23.174;2023-11-19T05:38:47;3.10;99.90
15700;DHT22;7950;42.744;23.174;2023-11-19T05:41:17;3.20;99.90
15700;DHT22;7950;42.744;23.174;2023-11-19T05:43:45;3.10;99.90
15700;DHT22;7950;42.744;23.174;2023-11-19T05:46:16;3.10;99.90
15700;DHT22;7950;42.744;23.174;2023-11-19T05:48:47;3.00;99.90
15700;DHT22;7950;42.744;23.174;2023-11-19T05:51:16;3.00;99.90
15700;DHT22;7950;42.744;23.174;2023-11-19T05:53:45;3.00;99.90
15700;DHT22;7950;42.744;23.174;2023-11-19T05:56:14;3.00;99.90
15700;DHT22;7950;42.744;23.174;2023-11-19T05:58:48;3.00;99.90
15700;DHT22;7950;42.744;23.174;2023-11-19T06:01:19;3.00;99.90
15700;DHT22;7950;42.744;23.174;2023-11-19T06:03:48;3.00;99.90
15700;DHT22;7950;42.744;23.174;2023-11-19T06:06:18;3.10;99.90
15700;DHT22;7950;42.744;23.174;2023-11-19T06:08:47;3.10;99.90
15700;DHT22;7950;42.744;23.174;2023-11-19T06:11:17;3.10;99.90
15700;DHT22;7950;42.744;23.174;2023-11-19T06:13:48;3.10;99.90
15700;DHT22;7950;42.744;23.174;2023-11-19T06:16:19;3.10;99.90
15700;DHT22;7950;42.744;23.174;2023-11-19T06:18:48;3.20;99.90
15700;DHT22;7950;42.744;23.174;2023-11-19T06:21:18;3.20;99.90
15700;DHT22;7950;42.744;23.174;2023-11-19T06:23:46;3.20;99.90
15700;DHT22;7950;42.744;23.174;2023-11-19T06:26:16;3.20;99.90
15700;DHT22;7950;42.744;23.174;2023-11-19T06:28:44;3.20;99.90
15700;DHT22;7950;42.744;23.174;2023-11-19T06:31:13;3.20;99.90
15700;DHT22;7950;42.744;23.174;2023-11-19T06:33:46;3.30;99.90
15700;DHT22;7950;42.744;23.174;2023-11-19T06:36:15;3.30;99.90
15700;DHT22;7950;42.744;23.174;2023-11-19T06:38:45;3.30;99.90
15700;DHT22;7950;42.744;23.174;2023-11-19T06:41:15;3.30;99.90
15700;DHT22;7950;42.744;23.174;2023-11-19T06:43:44;3.20;99.90
15700;DHT22;7950;42.744;23.174;2023-11-19T06:46:16;3.20;99.90
15700;DHT22;7950;42.744;23.174;2023-11-19T06:48:47;3.20;99.90
15700;DHT22;7950;42.744;23.174;2023-11-19T06:51:16;3.20;99.90
15700;DHT22;7950;42.744;23.174;2023-11-19T06:53:45;3.20;99.90
15700;DHT22;7950;42.744;23.174;2023-11-19T06:56:21;3.10;99.90
15700;DHT22;7950;42.744;23.174;2023-11-19T06:58:51;3.10;99.90
15700;DHT22;7950;42.744;23.174;2023-11-19T07:01:20;3.20;99.90
15700;DHT22;7950;42.744;23.174;2023-11-19T07:03:51;3.20;99.90
15700;DHT22;7950;42.744;23.174;2023-11-19T07:06:20;3.20;99.90
15700;DHT22;7950;42.744;23.174;2023-11-19T07:09:01;3.20;99.90
15700;DHT22;7950;42.744;23.174;2023-11-19T07:11:38;3.20;99.90
15700;DHT22;7950;42.744;23.174;2023-11-19T07:14:07;3.20;99.90
15700;DHT22;7950;42.744;23.174;2023-11-19T07:16:37;3.20;99.90
15700;DHT22;7950;42.744;23.174;2023-11-19T07:19:08;3.30;99.90
15700;DHT22;7950;42.744;23.174;2023-11-19T07:21:37;3.30;99.90
15700;DHT22;7950;42.744;23.174;2023-11-19T07:24:11;3.20;99.90
15700;DHT22;7950;42.744;23.174;2023-11-19T07:26:42;3.20;99.90
15700;DHT22;7950;42.744;23.174;2023-11-19T07:29:11;3.20;99.90
15700;DHT22;7950;42.744;23.174;2023-11-19T07:31:55;3.20;99.90
15700;DHT22;7950;42.744;23.174;2023-11-19T07:34:26;3.20;99.90
15700;DHT22;7950;42.744;23.174;2023-11-19T07:36:55;3.10;99.90
15700;DHT22;7950;42.744;23.174;2023-11-19T07:39:26;3.20;99.90
15700;DHT22;7950;42.744;23.174;2023-11-19T07:41:55;3.30;99.90
15700;DHT22;7950;42.744;23.174;2023-11-19T07:44:24;3.30;99.90
15700;DHT22;7950;42.744;23.174;2023-11-19T07:46:53;3.40;99.90
15700;DHT22;7950;42.744;23.174;2023-11-19T07:49:22;3.40;99.90
15700;DHT22;7950;42.744;23.174;2023-11-19T07:51:52;3.40;99.90
15700;DHT22;7950;42.744;23.174;2023-11-19T07:54:21;3.50;99.90
15700;DHT22;7950;42.744;23.174;2023-11-19T07:56:51;3.60;99.90
15700;DHT22;7950;42.744;23.174;2023-11-19T07:59:20;3.60;99.90
15700;DHT22;7950;42.744;23.174;2023-11-19T08:01:49;3.70;99.90
15700;DHT22;7950;42.744;23.174;2023-11-19T08:04:18;3.70;99.90
15700;DHT22;7950;42.744;23.174;2023-11-19T08:06:47;3.70;99.90
15700;DHT22;7950;42.744;23.174;2023-11-19T08:09:17;3.60;99.90
15700;DHT22;7950;42.744;23.174;2023-11-19T08:11:46;3.60;99.90
15700;DHT22;7950;42.744;23.174;2023-11-19T08:14:15;3.60;99.90
15700;DHT22;7950;42.744;23.174;2023-11-19T08:16:44;3.60;99.90
15700;DHT22;7950;42.744;23.174;2023-11-19T08:19:13;3.50;99.90
15700;DHT22;7950;42.744;23.174;2023-11-19T08:21:42;3.60;99.90
15700;DHT22;7950;42.744;23.174;2023-11-19T08:24:11;3.60;99.90
15700;DHT22;7950;42.744;23.174;2023-11-19T08:26:42;3.60;99.90
15700;DHT22;7950;42.744;23.174;2023-11-19T08:29:10;3.60;99.90
15700;DHT22;7950;42.744;23.174;2023-11-19T08:31:41;3.60;99.90
15700;DHT22;7950;42.744;23.174;2023-11-19T08:34:11;3.70;99.90
15700;DHT22;7950;42.744;23.174;2023-11-19T08:36:40;3.70;99.90
15700;DHT22;7950;42.744;23.174;2023-11-19T08:39:09;3.70;99.90
15700;DHT22;7950;42.744;23.174;2023-11-19T08:41:38;3.70;99.90
15700;DHT22;7950;42.744;23.174;2023-11-19T08:44:10;3.60;99.90
15700;DHT22;7950;42.744;23.174;2023-11-19T08:46:46;3.60;99.90
15700;DHT22;7950;42.744;23.174;2023-11-19T08:49:16;3.60;99.90
15700;DHT22;7950;42.744;23.174;2023-11-19T08:51:45;3.60;99.90
15700;DHT22;7950;42.744;23.174;2023-11-19T08:54:14;3.70;99.90
15700;DHT22;7950;42.744;23.174;2023-11-19T08:56:43;3.70;99.90
15700;DHT22;7950;42.744;23.174;2023-11-19T08:59:13;3.80;99.90
15700;DHT22;7950;42.744;23.174;2023-11-19T09:01:44;3.80;99.90
15700;DHT22;7950;42.744;23.174;2023-11-19T09:04:13;3.80;99.90
15700;DHT22;7950;42.744;23.174;2023-11-19T09:06:43;3.80;99.90
15700;DHT22;7950;42.744;23.174;2023-11-19T09:09:12;3.80;99.90
15700;DHT22;7950;42.744;23.174;2023-11-19T09:11:41;3.70;99.90
15700;DHT22;7950;42.744;23.174;2023-11-19T09:14:10;3.70;99.90
15700;DHT22;7950;42.744;23.174;2023-11-19T09:16:41;3.60;99.90
15700;DHT22;7950;42.744;23.174;2023-11-19T09:19:10;3.70;99.90
15700;DHT22;7950;42.744;23.174;2023-11-19T09:21:39;3.80;99.90
15700;DHT22;7950;42.744;23.174;2023-11-19T09:24:08;3.90;99.90
15700;DHT22;7950;42.744;23.174;2023-11-19T09:26:40;4.00;99.90
15700;DHT22;7950;42.744;23.174;2023-11-19T09:29:09;4.00;99.90
15700;DHT22;7950;42.744;23.174;2023-11-19T09:31:39;4.00;99.90
15700;DHT22;7950;42.744;23.174;2023-11-19T09:34:09;4.00;99.90
15700;DHT22;7950;42.744;23.174;2023-11-19T09:36:37;4.10;99.90
15700;DHT22;7950;42.744;23.174;2023-11-19T09:39:11;4.20;99.90
15700;DHT22;7950;42.744;23.174;2023-11-19T09:41:42;4.30;99.90
15700;DHT22;7950;42.744;23.174;2023-11-19T09:44:12;4.30;99.90
15700;DHT22;7950;42.744;23.174;2023-11-19T09:46:43;4.40;99.90
15700;DHT22;7950;42.744;23.174;2023-11-19T09:49:13;4.40;99.90
15700;DHT22;7950;42.744;23.174;2023-11-19T09:52:02;4.40;99.90
15700;DHT22;7950;42.744;23.174;2023-11-19T09:54:32;4.40;99.90
15700;DHT22;7950;42.744;23.174;2023-11-19T09:57:02;4.30;99.90
15700;DHT22;7950;42.744;23.174;2023-11-19T09:59:33;4.30;99.90
15700;DHT22;7950;42.744;23.174;2023-11-19T10:02:04;4.30;99.90
15700;DHT22;7950;42.744;23.174;2023-11-19T10:04:35;4.30;99.90
15700;DHT22;7950;42.744;23.174;2023-11-19T10:07:05;4.40;99.90
15700;DHT22;7950;42.744;23.174;2023-11-19T10:09:34;4.40;99.90
15700;DHT22;7950;42.744;23.174;2023-11-19T10:12:04;4.40;99.90
15700;DHT22;7950;42.744;23.174;2023-11-19T10:14:35;4.40;99.90
15700;DHT22;7950;42.744;23.174;2023-11-19T10:17:09;4.40;99.90
15700;DHT22;7950;42.744;23.174;2023-11-19T10:19:40;4.50;99.90
15700;DHT22;7950;42.744;23.174;2023-11-19T10:22:10;4.50;99.90
15700;DHT22;7950;42.744;23.174;2023-11-19T10:24:42;4.50;99.90
15700;DHT22;7950;42.744;23.174;2023-11-19T10:27:17;4.50;99.90
15700;DHT22;7950;42.744;23.174;2023-11-19T10:29:46;4.50;99.90
15700;DHT22;7950;42.744;23.174;2023-11-19T10:32:17;4.50;99.90
15700;DHT22;7950;42.744;23.174;2023-11-19T10:35:05;4.60;99.90
15700;DHT22;7950;42.744;23.174;2023-11-19T10:37:34;4.70;99.90
15700;DHT22;7950;42.744;23.174;2023-11-19T10:40:06;4.80;99.90
15700;DHT22;7950;42.744;23.174;2023-11-19T10:42:37;4.80;99.90
15700;DHT22;7950;42.744;23.174;2023-11-19T10:45:22;4.80;99.90
15700;DHT22;7950;42.744;23.174;2023-11-19T10:47:54;4.80;99.90
15700;DHT22;7950;42.744;23.174;2023-11-19T10:50:25;4.80;99.90
15700;DHT22;7950;42.744;23.174;2023-11-19T10:52:56;4.80;99.90
15700;DHT22;7950;42.744;23.174;2023-11-19T10:55:27;4.80;99.90
15700;DHT22;7950;42.744;23.174;2023-11-19T10:57:59;4.80;99.90
15700;DHT22;7950;42.744;23.174;2023-11-19T11:00:43;5.00;99.90
15700;DHT22;7950;42.744;23.174;2023-11-19T11:03:18;5.10;99.90
15700;DHT22;7950;42.744;23.174;2023-11-19T11:05:48;5.10;99.90
15700;DHT22;7950;42.744;23.174;2023-11-19T11:08:19;5.20;99.90
15700;DHT22;7950;42.744;23.174;2023-11-19T11:10:53;5.50;99.90
15700;DHT22;7950;42.744;23.174;2023-11-19T11:13:25;5.70;99.90
15700;DHT22;7950;42.744;23.174;2023-11-19T11:15:57;5.90;99.90
15700;DHT22;7950;42.744;23.174;2023-11-19T11:18:28;6.00;99.90
15700;DHT22;7950;42.744;23.174;2023-11-19T11:21:00;6.20;99.90
15700;DHT22;7950;42.744;23.174;2023-11-19T11:24:09;6.20;99.90
15700;DHT22;7950;42.744;23.174;2023-11-19T11:30:31;6.60;99.00
15700;DHT22;7950;42.744;23.174;2023-11-19T11:33:21;6.80;99.90
15700;DHT22;7950;42.744;23.174;2023-11-19T11:36:11;7.00;99.00
15700;DHT22;7950;42.744;23.174;2023-11-19T11:38:46;7.20;96.80
15700;DHT22;7950;42.744;23.174;2023-11-19T11:41:20;7.20;95.50
15700;DHT22;7950;42.744;23.174;2023-11-19T11:43:55;7.20;95.70
15700;DHT22;7950;42.744;23.174;2023-11-19T11:46:55;7.20;94.40
15700;DHT22;7950;42.744;23.174;2023-11-19T11:49:30;7.10;95.00
15700;DHT22;7950;42.744;23.174;2023-11-19T11:52:03;7.20;94.50
15700;DHT22;7950;42.744;23.174;2023-11-19T11:54:34;7.30;94.70
15700;DHT22;7950;42.744;23.174;2023-11-19T11:57:10;7.30;94.70
15700;DHT22;7950;42.744;23.174;2023-11-19T11:59:48;7.40;94.70
15700;DHT22;7950;42.744;23.174;2023-11-19T12:02:19;7.50;93.90
15700;DHT22;7950;42.744;23.174;2023-11-19T12:04:52;7.50;94.60
15700;DHT22;7950;42.744;23.174;2023-11-19T12:07:24;7.50;93.80
15700;DHT22;7950;42.744;23.174;2023-11-19T12:10:05;7.50;94.90
15700;DHT22;7950;42.744;23.174;2023-11-19T12:12:37;7.50;95.20
15700;DHT22;7950;42.744;23.174;2023-11-19T12:15:08;7.60;94.90
15700;DHT22;7950;42.744;23.174;2023-11-19T12:18:19;7.60;94.30
15700;DHT22;7950;42.744;23.174;2023-11-19T12:21:31;7.50;94.10
15700;DHT22;7950;42.744;23.174;2023-11-19T12:24:39;7.50;94.40
15700;DHT22;7950;42.744;23.174;2023-11-19T12:42:39;7.60;94.60
15700;DHT22;7950;42.744;23.174;2023-11-19T12:45:34;7.60;94.40
15700;DHT22;7950;42.744;23.174;2023-11-19T12:48:07;7.60;94.80
15700;DHT22;7950;42.744;23.174;2023-11-19T12:51:16;7.70;94.20
15700;DHT22;7950;42.744;23.174;2023-11-19T12:54:05;7.70;94.30
15700;DHT22;7950;42.744;23.174;2023-11-19T12:57:39;7.60;93.30
15700;DHT22;7950;42.744;23.174;2023-11-19T13:00:44;7.50;93.80
15700;DHT22;7950;42.744;23.174;2023-11-19T13:03:29;7.50;94.20
15700;DHT22;7950;42.744;23.174;2023-11-19T13:06:05;7.40;94.10
15700;DHT22;7950;42.744;23.174;2023-11-19T13:08:37;7.40;93.90
15700;DHT22;7950;42.744;23.174;2023-11-19T13:11:06;7.40;94.40
15700;DHT22;7950;42.744;23.174;2023-11-19T13:13:56;7.40;94.80
15700;DHT22;7950;42.744;23.174;2023-11-19T13:16:28;7.50;94.50
15700;DHT22;7950;42.744;23.174;2023-11-19T13:18:57;7.50;94.60
15700;DHT22;7950;42.744;23.174;2023-11-19T13:21:27;7.60;94.90
15700;DHT22;7950;42.744;23.174;2023-11-19T13:23:56;7.50;95.50
15700;DHT22;7950;42.744;23.174;2023-11-19T13:26:26;7.60;94.90
15700;DHT22;7950;42.744;23.174;2023-11-19T13:28:56;7.50;94.90
15700;DHT22;7950;42.744;23.174;2023-11-19T13:31:25;7.40;95.00
15700;DHT22;7950;42.744;23.174;2023-11-19T13:33:55;7.40;95.30
15700;DHT22;7950;42.744;23.174;2023-11-19T13:36:25;7.30;95.90
15700;DHT22;7950;42.744;23.174;2023-11-19T13:38:54;7.30;96.00
15700;DHT22;7950;42.744;23.174;2023-11-19T13:41:27;7.40;96.40
15700;DHT22;7950;42.744;23.174;2023-11-19T13:43:57;7.50;95.80
15700;DHT22;7950;42.744;23.174;2023-11-19T13:46:26;7.50;96.30
15700;DHT22;7950;42.744;23.174;2023-11-19T13:48:55;7.50;95.70
15700;DHT22;7950;42.744;23.174;2023-11-19T13:51:24;7.50;95.80
15700;DHT22;7950;42.744;23.174;2023-11-19T13:53:53;7.60;95.30
15700;DHT22;7950;42.744;23.174;2023-11-19T13:56:22;7.60;95.10
15700;DHT22;7950;42.744;23.174;2023-11-19T13:58:50;7.50;95.10
15700;DHT22;7950;42.744;23.174;2023-11-19T14:01:22;7.50;94.50
15700;DHT22;7950;42.744;23.174;2023-11-19T14:03:52;7.40;95.20
15700;DHT22;7950;42.744;23.174;2023-11-19T14:06:22;7.40;95.50
15700;DHT22;7950;42.744;23.174;2023-11-19T14:08:50;7.40;94.90
15700;DHT22;7950;42.744;23.174;2023-11-19T14:11:19;7.30;95.20
15700;DHT22;7950;42.744;23.174;2023-11-19T14:13:48;7.20;95.10
15700;DHT22;7950;42.744;23.174;2023-11-19T14:16:17;7.10;95.30
15700;DHT22;7950;42.744;23.174;2023-11-19T14:18:48;7.00;95.60
15700;DHT22;7950;42.744;23.174;2023-11-19T14:21:17;7.00;96.30
15700;DHT22;7950;42.744;23.174;2023-11-19T14:23:46;6.90;97.70
15700;DHT22;7950;42.744;23.174;2023-11-19T14:26:15;6.80;98.10
15700;DHT22;7950;42.744;23.174;2023-11-19T14:28:43;6.60;98.30
15700;DHT22;7950;42.744;23.174;2023-11-19T14:31:15;6.60;98.40
15700;DHT22;7950;42.744;23.174;2023-11-19T14:33:44;6.40;99.30
15700;DHT22;7950;42.744;23.174;2023-11-19T14:36:14;6.30;99.90
15700;DHT22;7950;42.744;23.174;2023-11-19T14:38:43;6.30;99.90
15700;DHT22;7950;42.744;23.174;2023-11-19T14:41:12;6.20;99.90
15700;DHT22;7950;42.744;23.174;2023-11-19T14:43:41;6.10;99.90
15700;DHT22;7950;42.744;23.174;2023-11-19T14:46:09;6.00;99.90
15700;DHT22;7950;42.744;23.174;2023-11-19T14:48:38;5.90;99.90
15700;DHT22;7950;42.744;23.174;2023-11-19T14:51:07;5.80;99.90
15700;DHT22;7950;42.744;23.174;2023-11-19T14:53:37;5.70;99.90
15700;DHT22;7950;42.744;23.174;2023-11-19T14:56:10;5.70;99.90
15700;DHT22;7950;42.744;23.174;2023-11-19T14:58:40;5.60;99.90
15700;DHT22;7950;42.744;23.174;2023-11-19T15:01:11;5.50;99.90
15700;DHT22;7950;42.744;23.174;2023-11-19T15:03:41;5.40;99.90
15700;DHT22;7950;42.744;23.174;2023-11-19T15:06:13;5.30;99.90
15700;DHT22;7950;42.744;23.174;2023-11-19T15:08:44;5.20;99.90
15700;DHT22;7950;42.744;23.174;2023-11-19T15:11:13;5.10;99.90
15700;DHT22;7950;42.744;23.174;2023-11-19T15:13:41;5.10;99.90
15700;DHT22;7950;42.744;23.174;2023-11-19T15:16:10;5.00;99.90
15700;DHT22;7950;42.744;23.174;2023-11-19T15:18:41;4.90;99.90
15700;DHT22;7950;42.744;23.174;2023-11-19T15:21:11;4.80;99.90
15700;DHT22;7950;42.744;23.174;2023-11-19T15:23:40;4.80;99.90
15700;DHT22;7950;42.744;23.174;2023-11-19T15:26:11;4.70;99.90
15700;DHT22;7950;42.744;23.174;2023-11-19T15:28:40;4.70;99.90
15700;DHT22;7950;42.744;23.174;2023-11-19T15:31:09;4.60;99.90
15700;DHT22;7950;42.744;23.174;2023-11-19T15:33:38;4.50;99.90
15700;DHT22;7950;42.744;23.174;2023-11-19T15:36:08;4.50;99.90
15700;DHT22;7950;42.744;23.174;2023-11-19T15:38:36;4.40;99.90
15700;DHT22;7950;42.744;23.174;2023-11-19T15:41:08;4.40;99.90
15700;DHT22;7950;42.744;23.174;2023-11-19T15:43:41;4.30;99.90
15700;DHT22;7950;42.744;23.174;2023-11-19T15:46:10;4.30;99.90
15700;DHT22;7950;42.744;23.174;2023-11-19T15:48:39;4.20;99.90
15700;DHT22;7950;42.744;23.174;2023-11-19T15:51:08;4.10;99.90
15700;DHT22;7950;42.744;23.174;2023-11-19T15:53:37;4.10;99.90
15700;DHT22;7950;42.744;23.174;2023-11-19T15:56:06;4.00;99.90
15700;DHT22;7950;42.744;23.174;2023-11-19T15:58:35;3.90;99.90
15700;DHT22;7950;42.744;23.174;2023-11-19T16:01:08;3.90;99.90
15700;DHT22;7950;42.744;23.174;2023-11-19T16:03:37;3.80;99.90
15700;DHT22;7950;42.744;23.174;2023-11-19T16:06:09;3.70;99.90
15700;DHT22;7950;42.744;23.174;2023-11-19T16:08:38;3.70;99.90
15700;DHT22;7950;42.744;23.174;2023-11-19T16:11:09;3.70;99.90
15700;DHT22;7950;42.744;23.174;2023-11-19T16:13:40;3.70;99.90
15700;DHT22;7950;42.744;23.174;2023-11-19T16:16:11;3.70;99.90
15700;DHT22;7950;42.744;23.174;2023-11-19T16:18:40;3.70;99.90
15700;DHT22;7950;42.744;23.174;2023-11-19T16:21:09;3.80;99.90
15700;DHT22;7950;42.744;23.174;2023-11-19T16:23:38;3.90;99.90
15700;DHT22;7950;42.744;23.174;2023-11-19T16:26:06;4.00;99.90
15700;DHT22;7950;42.744;23.174;2023-11-19T16:28:35;4.00;99.90
15700;DHT22;7950;42.744;23.174;2023-11-19T16:31:04;4.10;99.90